Time;durP1;ratioP1;P1;durP2;ratioP2;P2;SDS_P1;SDS_P2;PMS_P1;PMS_P2;Temp;Humidity;BMP_temperature;BMP_pressure;BME280_temperature;BME280_humidity;BME280_pressure;Samples;Min_cycle;Max_cycle;Signal;HPM_P1;HPM_P2
2022/04/14 00:00:27;;;;;;;72.83;32.10;;;12.60;99.90;;;;;;5001474;28;20301;-83
2022/04/14 00:02:54;;;;;;;68.77;32.40;;;12.60;99.90;;;;;;5000991;28;20210;-84
2022/04/14 00:05:21;;;;;;;78.03;32.43;;;12.60;99.90;;;;;;5006148;28;20288;-83
2022/04/14 00:07:48;;;;;;;68.70;32.10;;;12.60;99.90;;;;;;4997902;28;20230;-82
2022/04/14 00:10:15;;;;;;;68.33;31.60;;;12.60;99.90;;;;;;4999877;28;20772;-83
2022/04/14 00:12:43;;;;;;;65.57;30.00;;;12.50;99.90;;;;;;5004305;28;20248;-83
2022/04/14 00:15:11;;;;;;;71.80;31.47;;;12.60;99.90;;;;;;5006888;28;20208;-83
2022/04/14 00:17:38;;;;;;;74.47;32.27;;;12.60;99.90;;;;;;4998966;28;20284;-83
2022/04/14 00:20:07;;;;;;;80.67;33.80;;;12.60;99.90;;;;;;5003757;28;20260;-83
2022/04/14 00:22:35;;;;;;;71.93;32.90;;;12.60;99.90;;;;;;5002534;28;20742;-81
2022/04/14 00:25:03;;;;;;;67.30;31.83;;;12.60;99.90;;;;;;5001305;28;20778;-82
2022/04/14 00:27:30;;;;;;;68.87;31.33;;;12.50;99.90;;;;;;4992761;28;20209;-82
2022/04/14 00:29:57;;;;;;;70.10;31.83;;;12.50;99.90;;;;;;4999795;28;20296;-82
2022/04/14 00:32:24;;;;;;;73.27;33.33;;;12.50;99.90;;;;;;4994998;28;20255;-82
2022/04/14 00:34:50;;;;;;;69.67;32.63;;;12.50;99.90;;;;;;5001346;28;20298;-82
2022/04/14 00:37:17;;;;;;;71.73;32.23;;;12.40;99.90;;;;;;5005928;28;20227;-82
2022/04/14 00:39:44;;;;;;;68.83;32.17;;;12.40;99.90;;;;;;5000756;28;20218;-83
2022/04/14 00:42:12;;;;;;;73.27;34.40;;;12.40;99.90;;;;;;4997482;28;20241;-83
2022/04/14 00:44:39;;;;;;;66.53;31.93;;;12.40;99.90;;;;;;5004076;28;20201;-83
2022/04/14 00:47:07;;;;;;;70.50;32.83;;;12.40;99.90;;;;;;5001038;28;20221;-84
2022/04/14 00:49:35;;;;;;;73.33;33.67;;;12.30;99.90;;;;;;5004334;28;20662;-82
2022/04/14 00:52:03;;;;;;;78.80;35.40;;;12.20;99.90;;;;;;5001291;28;20693;-83
2022/04/14 00:54:30;;;;;;;74.13;33.17;;;12.30;99.90;;;;;;4997634;28;20241;-83
2022/04/14 00:57:03;;;;;;;71.47;34.00;;;12.30;99.90;;;;;;5016088;28;20223;-84
2022/04/14 00:59:30;;;;;;;73.43;31.63;;;12.30;99.90;;;;;;5015240;28;20221;-82
2022/04/14 01:01:57;;;;;;;77.17;35.50;;;12.20;99.90;;;;;;4999674;28;20439;-81
2022/04/14 01:04:26;;;;;;;78.43;33.90;;;12.20;99.90;;;;;;5005440;28;20223;-82
2022/04/14 01:06:53;;;;;;;78.93;34.43;;;12.20;99.90;;;;;;5000780;28;20229;-82
2022/04/14 01:09:26;;;;;;;82.03;34.97;;;12.10;99.90;;;;;;4998529;28;20206;-83
2022/04/14 01:11:54;;;;;;;81.60;35.47;;;12.10;99.90;;;;;;4996934;28;20213;-83
2022/04/14 01:14:33;;;;;;;83.83;36.60;;;12.10;99.90;;;;;;4996838;28;20687;-83
2022/04/14 01:17:03;;;;;;;91.90;39.07;;;12.10;99.90;;;;;;5005814;28;20200;-83
2022/04/14 01:19:30;;;;;;;86.53;36.10;;;12.00;99.90;;;;;;4998363;28;20332;-81
2022/04/14 01:22:23;;;;;;;85.83;36.67;;;12.00;99.90;;;;;;5000925;28;20850;-81
2022/04/14 01:24:55;;;;;;;88.80;35.10;;;12.00;99.90;;;;;;4997559;28;20324;-82
2022/04/14 01:27:23;;;;;;;94.73;37.90;;;11.90;99.90;;;;;;4995689;28;20217;-84
2022/04/14 01:29:53;;;;;;;85.90;38.03;;;11.90;99.90;;;;;;4998595;28;20213;-82
2022/04/14 01:32:21;;;;;;;87.20;36.43;;;11.90;99.90;;;;;;4996812;28;20204;-83
2022/04/14 01:34:51;;;;;;;85.47;36.27;;;11.90;99.90;;;;;;5008055;28;20240;-82
2022/04/14 01:37:18;;;;;;;90.70;35.43;;;11.90;99.90;;;;;;4995248;28;20271;-82
2022/04/14 01:39:45;;;;;;;81.13;34.90;;;11.90;99.90;;;;;;4996443;28;20490;-82
2022/04/14 01:42:12;;;;;;;88.77;36.70;;;11.90;99.90;;;;;;4994643;28;20217;-81
2022/04/14 01:44:38;;;;;;;89.27;35.40;;;11.90;99.90;;;;;;4997704;28;20300;-82
2022/04/14 01:47:05;;;;;;;85.27;35.87;;;11.80;99.90;;;;;;4998929;28;20216;-82
2022/04/14 01:49:32;;;;;;;87.90;35.57;;;11.80;99.90;;;;;;4998915;28;20244;-82
2022/04/14 01:51:59;;;;;;;81.10;34.47;;;11.80;99.90;;;;;;4995055;28;20220;-82
2022/04/14 01:54:26;;;;;;;83.80;35.27;;;11.80;99.90;;;;;;5002004;28;20247;-83
2022/04/14 01:56:52;;;;;;;79.73;33.50;;;11.70;99.90;;;;;;4998597;28;20213;-81
2022/04/14 01:59:19;;;;;;;84.13;36.00;;;11.80;99.90;;;;;;5001263;28;20326;-81
2022/04/14 02:01:46;;;;;;;89.57;34.97;;;11.60;99.90;;;;;;5001135;28;20204;-81
2022/04/14 02:04:13;;;;;;;85.50;34.57;;;11.50;99.90;;;;;;5007101;28;20207;-81
2022/04/14 02:06:40;;;;;;;88.83;36.23;;;11.60;99.90;;;;;;5003941;28;20669;-81
2022/04/14 02:09:07;;;;;;;92.23;35.43;;;11.70;99.90;;;;;;5009753;28;20640;-82
2022/04/14 02:11:33;;;;;;;82.67;36.50;;;11.60;99.90;;;;;;5008711;28;20242;-82
2022/04/14 02:14:02;;;;;;;73.17;33.47;;;11.60;99.90;;;;;;4999537;28;20634;-82
2022/04/14 02:16:29;;;;;;;83.53;34.17;;;11.60;99.90;;;;;;5000977;28;20265;-82
2022/04/14 02:18:56;;;;;;;87.87;34.70;;;11.50;99.90;;;;;;5009867;28;20310;-81
2022/04/14 02:21:23;;;;;;;86.87;34.93;;;11.50;99.90;;;;;;5007081;28;20203;-81
2022/04/14 02:23:49;;;;;;;86.67;34.33;;;11.50;99.90;;;;;;5013439;28;20240;-80
2022/04/14 02:26:17;;;;;;;82.80;34.57;;;11.50;99.90;;;;;;5004247;28;20310;-82
2022/04/14 02:28:45;;;;;;;94.40;36.90;;;11.50;99.90;;;;;;5000461;28;20191;-82
2022/04/14 02:31:11;;;;;;;101.40;37.07;;;11.40;99.90;;;;;;4995466;28;20579;-81
2022/04/14 02:33:38;;;;;;;78.40;35.50;;;11.40;99.90;;;;;;4998293;28;20567;-81
2022/04/14 02:36:05;;;;;;;87.97;36.27;;;11.40;99.90;;;;;;4997458;28;20263;-82
2022/04/14 02:38:32;;;;;;;90.70;35.70;;;11.40;99.90;;;;;;4999076;28;20419;-82
2022/04/14 02:40:58;;;;;;;93.97;36.33;;;11.50;99.90;;;;;;4996195;28;20668;-81
2022/04/14 02:43:25;;;;;;;93.60;36.40;;;11.40;99.90;;;;;;4992701;28;20293;-82
2022/04/14 02:45:52;;;;;;;95.43;39.13;;;11.30;99.90;;;;;;4998332;28;20389;-81
2022/04/14 02:48:19;;;;;;;97.40;38.20;;;11.30;99.90;;;;;;4994667;28;20518;-82
2022/04/14 02:50:46;;;;;;;104.57;40.43;;;11.30;99.90;;;;;;4994518;28;20667;-83
2022/04/14 02:53:13;;;;;;;102.87;39.40;;;11.30;99.90;;;;;;4997934;28;20641;-82
2022/04/14 02:55:41;;;;;;;98.27;41.40;;;11.30;99.90;;;;;;4998688;28;20207;-81
2022/04/14 02:58:08;;;;;;;101.43;39.73;;;11.30;99.90;;;;;;4997303;28;20217;-81
2022/04/14 03:00:36;;;;;;;106.10;41.07;;;11.30;99.90;;;;;;5000969;28;20206;-81
2022/04/14 03:03:03;;;;;;;109.87;43.37;;;11.30;99.90;;;;;;4995111;28;20208;-83
2022/04/14 03:05:30;;;;;;;112.20;42.97;;;11.10;99.90;;;;;;5002897;28;20277;-82
2022/04/14 03:07:57;;;;;;;116.70;43.27;;;11.20;99.90;;;;;;5007262;28;20235;-81
2022/04/14 03:10:24;;;;;;;115.57;43.33;;;11.20;99.90;;;;;;5000913;28;20515;-80
2022/04/14 03:12:51;;;;;;;110.03;42.87;;;11.20;99.90;;;;;;4991754;28;20232;-83
2022/04/14 03:15:18;;;;;;;115.60;46.13;;;11.20;99.90;;;;;;4995053;28;20200;-82
2022/04/14 03:17:45;;;;;;;116.50;43.27;;;11.30;99.90;;;;;;4995464;28;20232;-83
2022/04/14 03:20:12;;;;;;;115.57;44.47;;;11.20;99.90;;;;;;5001849;28;20238;-81
2022/04/14 03:22:39;;;;;;;115.33;46.00;;;11.20;99.90;;;;;;5001651;28;20248;-82
2022/04/14 03:25:08;;;;;;;123.57;46.87;;;11.20;99.90;;;;;;5001473;28;20659;-80
2022/04/14 03:27:36;;;;;;;130.40;45.00;;;11.10;99.90;;;;;;5001382;28;20671;-82
2022/04/14 03:30:05;;;;;;;125.30;46.90;;;11.30;99.90;;;;;;5006214;28;20241;-82
2022/04/14 03:32:32;;;;;;;114.53;45.20;;;11.10;99.90;;;;;;5004689;28;20222;-82
2022/04/14 03:35:03;;;;;;;111.77;44.07;;;11.10;99.90;;;;;;5003491;28;20202;-81
2022/04/14 03:37:30;;;;;;;110.40;44.70;;;11.10;99.90;;;;;;4996340;28;20219;-82
2022/04/14 03:39:57;;;;;;;109.93;44.97;;;11.10;99.90;;;;;;4999571;28;20239;-82
2022/04/14 03:42:23;;;;;;;117.13;45.20;;;11.00;99.90;;;;;;5001327;28;20282;-83
2022/04/14 03:44:50;;;;;;;121.67;45.17;;;11.00;99.90;;;;;;5002492;28;20234;-82
2022/04/14 03:47:17;;;;;;;121.10;46.27;;;11.00;99.90;;;;;;5000264;28;20748;-82
2022/04/14 03:49:44;;;;;;;127.07;47.57;;;11.00;99.90;;;;;;5003812;28;20211;-82
2022/04/14 03:52:10;;;;;;;130.67;49.47;;;11.00;99.90;;;;;;4998938;28;20254;-83
2022/04/14 03:54:37;;;;;;;117.57;45.77;;;11.00;99.90;;;;;;4996358;28;20285;-82
2022/04/14 03:57:05;;;;;;;120.33;46.93;;;11.00;99.90;;;;;;5006798;28;20816;-82
2022/04/14 03:59:32;;;;;;;113.67;44.43;;;11.10;99.90;;;;;;5010682;28;20267;-81
2022/04/14 04:01:59;;;;;;;115.70;46.40;;;10.90;99.90;;;;;;5000601;28;20243;-82
2022/04/14 04:04:26;;;;;;;115.53;45.97;;;10.90;99.90;;;;;;5002356;28;20209;-81
2022/04/14 04:06:53;;;;;;;115.60;46.23;;;10.90;99.90;;;;;;4998299;28;20239;-83
2022/04/14 04:09:20;;;;;;;112.20;44.37;;;10.90;99.90;;;;;;4996097;28;20237;-82
2022/04/14 04:11:47;;;;;;;120.00;46.83;;;10.80;99.90;;;;;;5001721;28;20212;-83
2022/04/14 04:14:14;;;;;;;122.97;46.03;;;10.80;99.90;;;;;;5000155;28;20214;-83
2022/04/14 04:16:41;;;;;;;112.87;44.73;;;10.80;99.90;;;;;;4999851;28;20395;-82
2022/04/14 04:19:09;;;;;;;119.20;44.77;;;10.80;99.90;;;;;;5001043;28;20659;-82
2022/04/14 04:21:35;;;;;;;122.93;48.00;;;10.80;99.90;;;;;;5001413;28;20305;-83
2022/04/14 04:24:02;;;;;;;135.07;49.20;;;10.80;99.90;;;;;;4998979;28;20219;-82
2022/04/14 04:26:29;;;;;;;121.77;47.03;;;10.70;99.90;;;;;;5003909;28;20250;-84
2022/04/14 04:28:56;;;;;;;112.07;45.07;;;10.60;99.90;;;;;;4993969;28;20243;-83
2022/04/14 04:31:23;;;;;;;120.47;44.03;;;10.60;99.90;;;;;;4997649;28;21027;-83
2022/04/14 04:33:51;;;;;;;128.00;49.67;;;10.70;99.90;;;;;;4998804;28;20623;-82
2022/04/14 04:36:18;;;;;;;116.30;47.63;;;10.60;99.90;;;;;;5000483;28;20570;-82
2022/04/14 04:38:45;;;;;;;135.00;50.40;;;10.60;99.90;;;;;;5011669;28;20206;-82
2022/04/14 04:41:11;;;;;;;129.47;48.23;;;10.60;99.90;;;;;;4997700;28;20286;-82
2022/04/14 04:43:39;;;;;;;131.50;47.30;;;10.60;99.90;;;;;;5005292;28;20211;-82
2022/04/14 04:46:07;;;;;;;132.53;48.83;;;10.50;99.90;;;;;;4999888;28;20697;-83
2022/04/14 04:48:35;;;;;;;127.30;48.53;;;10.50;99.90;;;;;;5003911;28;20211;-82
2022/04/14 04:51:02;;;;;;;130.77;49.27;;;10.50;99.90;;;;;;5000966;28;20265;-83
2022/04/14 04:53:29;;;;;;;124.17;48.27;;;10.50;99.90;;;;;;4999434;28;20425;-83
2022/04/14 04:55:56;;;;;;;125.57;47.60;;;10.50;99.90;;;;;;4994775;28;20211;-83
2022/04/14 04:58:22;;;;;;;122.17;47.33;;;10.50;99.90;;;;;;5000123;28;20275;-82
2022/04/14 05:00:49;;;;;;;128.87;46.23;;;10.40;99.90;;;;;;5000424;28;20593;-83
2022/04/14 05:03:16;;;;;;;136.90;48.47;;;10.40;99.90;;;;;;4999491;28;20300;-83
2022/04/14 05:05:49;;;;;;;128.57;49.67;;;10.40;99.90;;;;;;4999067;28;20203;-81
2022/04/14 05:08:16;;;;;;;133.37;50.13;;;10.40;99.90;;;;;;4997634;28;20697;-83
2022/04/14 05:10:43;;;;;;;122.23;48.53;;;10.40;99.90;;;;;;5017969;28;20245;-84
2022/04/14 05:13:10;;;;;;;115.73;47.97;;;10.40;99.90;;;;;;4996969;28;20215;-84
2022/04/14 05:15:37;;;;;;;117.87;46.57;;;10.30;99.90;;;;;;4997613;28;20757;-85
2022/04/14 05:18:04;;;;;;;128.27;47.37;;;10.40;99.90;;;;;;4998756;28;20298;-81
2022/04/14 05:20:32;;;;;;;117.00;45.50;;;10.40;99.90;;;;;;4999769;28;20294;-81
2022/04/14 05:22:58;;;;;;;125.07;46.33;;;10.30;99.90;;;;;;5003966;28;20265;-80
2022/04/14 05:25:25;;;;;;;109.63;43.27;;;10.30;99.90;;;;;;5000313;28;20202;-81
2022/04/14 05:27:52;;;;;;;122.70;45.30;;;10.40;99.90;;;;;;5007154;28;20376;-82
2022/04/14 05:30:19;;;;;;;111.40;45.27;;;10.40;99.90;;;;;;5005264;28;20210;-82
2022/04/14 05:32:46;;;;;;;114.10;45.50;;;10.40;99.90;;;;;;5003445;28;20240;-82
2022/04/14 05:35:13;;;;;;;109.90;43.97;;;10.40;99.90;;;;;;5012425;28;20215;-81
2022/04/14 05:37:39;;;;;;;107.03;44.83;;;10.30;99.90;;;;;;5005618;28;20255;-83
2022/04/14 05:40:08;;;;;;;113.73;44.73;;;10.40;99.90;;;;;;5005228;28;20258;-82
2022/04/14 05:42:35;;;;;;;108.53;44.60;;;10.40;99.90;;;;;;4996898;28;20261;-85
2022/04/14 05:45:02;;;;;;;107.83;45.43;;;10.40;99.90;;;;;;5002644;28;20255;-83
2022/04/14 05:47:29;;;;;;;107.77;43.50;;;10.50;99.90;;;;;;5003868;28;20250;-82
2022/04/14 05:49:56;;;;;;;117.30;47.57;;;10.50;99.90;;;;;;5000385;28;20201;-82
2022/04/14 05:52:22;;;;;;;107.37;45.60;;;10.60;99.90;;;;;;5008308;28;20217;-82
2022/04/14 05:54:49;;;;;;;103.00;44.63;;;10.60;99.90;;;;;;5003781;28;20231;-82
2022/04/14 05:57:16;;;;;;;109.80;43.80;;;10.60;99.90;;;;;;5004761;28;20270;-83
2022/04/14 05:59:43;;;;;;;99.73;43.50;;;10.60;99.90;;;;;;5002363;28;20297;-84
2022/04/14 06:02:10;;;;;;;118.83;46.23;;;10.70;99.90;;;;;;5004554;28;20233;-84
2022/04/14 06:04:37;;;;;;;108.53;46.00;;;10.70;99.90;;;;;;5011820;28;20217;-82
2022/04/14 06:07:04;;;;;;;102.77;44.40;;;10.80;99.90;;;;;;5002027;28;20330;-88
2022/04/14 06:09:31;;;;;;;101.47;46.03;;;10.80;99.90;;;;;;5002920;28;20800;-86
2022/04/14 06:11:59;;;;;;;93.73;42.93;;;10.90;99.90;;;;;;5002491;28;20273;-84
2022/04/14 06:14:46;;;;;;;99.80;43.23;;;11.00;99.90;;;;;;5002932;28;20586;-85
2022/04/14 06:17:12;;;;;;;92.60;41.57;;;11.10;99.90;;;;;;4999204;28;20487;-87
2022/04/14 06:19:39;;;;;;;91.13;41.33;;;11.10;99.90;;;;;;5001574;28;20244;-85
2022/04/14 06:22:06;;;;;;;85.87;41.10;;;11.20;99.90;;;;;;5005820;28;20761;-83
2022/04/14 06:24:35;;;;;;;105.73;45.37;;;11.30;99.90;;;;;;4998089;28;20233;-90
2022/04/14 06:27:02;;;;;;;84.73;41.77;;;11.70;99.90;;;;;;5002345;28;20261;-84
2022/04/14 06:29:29;;;;;;;55.53;30.13;;;12.20;99.90;;;;;;4999721;28;20227;-84
2022/04/14 06:31:55;;;;;;;45.03;26.93;;;13.10;99.90;;;;;;5017974;28;20229;-87
2022/04/14 06:34:22;;;;;;;40.73;24.83;;;15.20;99.90;;;;;;5004261;28;20203;-82
2022/04/14 06:36:50;;;;;;;43.03;25.60;;;15.00;99.90;;;;;;5004436;28;20250;-84
2022/04/14 06:39:17;;;;;;;39.80;22.15;;;15.90;99.90;;;;;;5003652;28;20254;-91
2022/04/14 06:41:44;;;;;;;36.88;21.85;;;16.80;99.90;;;;;;5000716;28;20573;-84
2022/04/14 06:44:13;;;;;;;36.85;21.30;;;17.20;99.90;;;;;;4997610;28;20665;-86
2022/04/14 06:46:40;;;;;;;35.67;22.05;;;18.10;99.90;;;;;;5003276;28;20313;-87
2022/04/14 06:49:07;;;;;;;34.63;20.23;;;18.80;99.90;;;;;;5003439;28;20713;-86
2022/04/14 06:51:33;;;;;;;32.05;20.73;;;19.40;99.90;;;;;;5000939;28;20585;-90
2022/04/14 06:54:00;;;;;;;32.85;21.08;;;19.80;99.90;;;;;;5002563;28;20198;-83
2022/04/14 06:56:27;;;;;;;29.40;19.90;;;20.20;99.90;;;;;;4999270;28;20297;-83
2022/04/14 06:58:54;;;;;;;31.25;19.38;;;20.60;99.90;;;;;;5019989;28;20233;-84
2022/04/14 07:01:23;;;;;;;31.75;19.92;;;20.70;99.90;;;;;;5007119;28;20195;-89
2022/04/14 07:03:51;;;;;;;29.23;19.20;;;21.00;99.90;;;;;;5005515;28;20198;-90
2022/04/14 07:06:19;;;;;;;29.42;18.77;;;21.30;99.90;;;;;;5002349;28;20442;-88
2022/04/14 07:08:46;;;;;;;26.77;17.27;;;21.60;99.90;;;;;;5006803;28;20223;-86
2022/04/14 07:11:13;;;;;;;26.92;17.83;;;21.70;99.90;;;;;;5008252;28;20230;-86
2022/04/14 07:13:39;;;;;;;31.35;19.10;;;21.80;99.90;;;;;;4997349;28;20239;-88
2022/04/14 07:16:06;;;;;;;26.42;19.00;;;22.30;99.90;;;;;;5005973;28;20213;-85
2022/04/14 07:18:34;;;;;;;29.10;18.42;;;22.40;99.90;;;;;;5003791;28;20272;-88
2022/04/14 07:21:01;;;;;;;25.52;18.58;;;22.60;99.90;;;;;;5010925;28;20650;-89
2022/04/14 07:23:32;;;;;;;27.52;19.73;;;22.40;99.90;;;;;;5019599;28;20648;-91
2022/04/14 07:26:03;;;;;;;28.55;18.63;;;22.40;99.90;;;;;;5017566;28;20780;-87
2022/04/14 07:28:29;;;;;;;26.23;18.58;;;22.50;99.90;;;;;;5001051;28;20317;-85
2022/04/14 07:30:57;;;;;;;26.48;17.98;;;22.60;99.90;;;;;;5004926;28;20569;-89
2022/04/14 07:33:24;;;;;;;28.60;19.13;;;22.70;99.90;;;;;;5006524;28;20658;-88
2022/04/14 07:35:52;;;;;;;25.67;18.45;;;23.10;99.90;;;;;;5008269;28;20708;-88
2022/04/14 07:38:19;;;;;;;23.50;17.35;;;22.90;99.90;;;;;;5003674;28;20280;-90
2022/04/14 07:40:46;;;;;;;25.52;17.35;;;23.00;99.90;;;;;;5007880;28;20658;-90
2022/04/14 07:43:14;;;;;;;26.15;16.83;;;23.00;99.90;;;;;;5006923;28;20619;-89
2022/04/14 07:45:45;;;;;;;25.52;16.45;;;23.20;99.90;;;;;;5000305;28;20309;-86
2022/04/14 07:48:12;;;;;;;26.75;16.67;;;23.30;99.90;;;;;;5003994;28;20226;-85
2022/04/14 07:50:39;;;;;;;21.52;15.85;;;23.40;99.90;;;;;;5003660;28;20294;-85
2022/04/14 07:53:10;;;;;;;24.45;16.25;;;23.70;99.90;;;;;;5002101;28;20669;-85
2022/04/14 07:55:38;;;;;;;24.52;16.30;;;24.00;99.90;;;;;;5002995;28;20296;-85
2022/04/14 07:58:09;;;;;;;23.08;16.17;;;24.00;99.90;;;;;;5001501;28;20269;-86
2022/04/14 08:00:39;;;;;;;26.00;16.58;;;23.70;99.90;;;;;;5002827;28;20658;-84
2022/04/14 08:03:07;;;;;;;24.10;16.10;;;23.40;99.90;;;;;;5004708;28;20255;-85
2022/04/14 08:05:40;;;;;;;26.20;17.27;;;23.20;99.90;;;;;;5000733;28;20231;-90
2022/04/14 08:08:13;;;;;;;25.42;17.25;;;22.70;99.90;;;;;;5008680;28;20246;-91
2022/04/14 08:10:46;;;;;;;21.08;14.48;;;22.30;99.90;;;;;;5017228;28;20226;-89
2022/04/14 08:13:14;;;;;;;22.55;15.00;;;22.00;99.90;;;;;;5001501;28;20749;-84
2022/04/14 08:15:42;;;;;;;21.88;13.88;;;21.70;99.90;;;;;;5008924;28;20203;-90
2022/04/14 08:18:09;;;;;;;21.88;12.90;;;21.40;99.90;;;;;;5009546;28;20230;-89
2022/04/14 08:20:40;;;;;;;21.48;12.68;;;21.10;99.90;;;;;;5007354;28;20210;-88
2022/04/14 08:23:14;;;;;;;17.77;11.95;;;20.90;99.90;;;;;;5012181;28;20647;-88
2022/04/14 08:25:41;;;;;;;18.13;11.82;;;20.70;99.90;;;;;;5009508;28;20222;-85
2022/04/14 08:28:28;;;;;;;21.58;12.75;;;20.60;99.90;;;;;;5004829;28;20257;-88
2022/04/14 08:30:56;;;;;;;19.65;12.13;;;20.40;99.90;;;;;;5013696;28;20202;-84
2022/04/14 08:33:24;;;;;;;22.98;13.48;;;20.30;99.90;;;;;;5013740;28;20225;-85
2022/04/14 08:35:55;;;;;;;18.73;12.38;;;20.20;99.90;;;;;;5020340;28;20374;-92
2022/04/14 08:38:22;;;;;;;20.10;11.63;;;19.70;99.90;;;;;;5012420;28;20226;-89
2022/04/14 08:41:00;;;;;;;15.45;10.80;;;19.70;99.90;;;;;;5015209;28;20225;-89
2022/04/14 08:43:55;;;;;;;17.95;11.60;;;19.90;99.90;;;;;;5011815;28;20210;-89
2022/04/14 08:46:23;;;;;;;18.73;11.52;;;20.10;99.90;;;;;;5011836;28;20203;-85
2022/04/14 08:48:50;;;;;;;18.27;11.27;;;20.10;99.90;;;;;;5008815;28;20218;-86
2022/04/14 08:51:20;;;;;;;18.00;11.10;;;20.20;99.90;;;;;;5013552;28;20290;-89
2022/04/14 08:53:48;;;;;;;20.42;11.25;;;20.20;99.90;;;;;;5012175;28;20273;-86
2022/04/14 08:56:22;;;;;;;19.48;12.60;;;19.90;99.90;;;;;;5007690;28;20565;-86
2022/04/14 08:58:55;;;;;;;23.83;15.80;;;20.30;99.90;;;;;;5003824;28;20194;-89
2022/04/14 09:01:26;;;;;;;21.80;12.63;;;20.50;99.90;;;;;;5008769;28;20708;-88
2022/04/14 09:04:02;;;;;;;21.92;14.00;;;20.90;99.90;;;;;;5013757;28;20293;-91
2022/04/14 09:06:33;;;;;;;18.70;13.32;;;21.30;99.90;;;;;;5021679;28;20317;-91
2022/04/14 09:09:06;;;;;;;21.38;13.10;;;21.90;99.90;;;;;;5011045;28;20225;-88
2022/04/14 09:11:34;;;;;;;18.17;12.80;;;22.30;99.90;;;;;;5014966;28;20206;-87
2022/04/14 09:14:06;;;;;;;17.75;12.82;;;22.70;99.90;;;;;;5008154;28;20254;-92
2022/04/14 09:16:33;;;;;;;20.75;12.40;;;23.20;99.90;;;;;;5031172;28;20210;-86
2022/04/14 09:19:03;;;;;;;18.05;11.27;;;23.40;99.90;;;;;;5018441;28;20246;-86
2022/04/14 09:21:32;;;;;;;16.00;10.95;;;22.90;99.90;;;;;;5005075;28;20236;-89
2022/04/14 09:24:10;;;;;;;13.40;9.77;;;23.00;99.90;;;;;;5010868;28;20669;-90
2022/04/14 09:26:42;;;;;;;10.93;8.32;;;23.20;99.90;;;;;;5011339;28;20273;-91
2022/04/14 09:29:12;;;;;;;11.00;6.88;;;23.60;99.90;;;;;;5003034;28;20582;-91
2022/04/14 09:31:50;;;;;;;14.68;7.35;;;23.80;99.90;;;;;;5010326;28;20203;-91
2022/04/14 09:34:38;;;;;;;10.30;7.13;;;23.60;99.90;;;;;;5006648;28;20207;-89
2022/04/14 09:37:08;;;;;;;9.52;6.32;;;23.80;99.90;;;;;;4998674;28;20591;-91
2022/04/14 09:39:56;;;;;;;9.23;5.85;;;23.70;99.90;;;;;;5012292;28;20212;-91
2022/04/14 09:42:25;;;;;;;10.55;6.50;;;23.50;99.90;;;;;;5015030;28;20281;-91
2022/04/14 09:44:55;;;;;;;10.95;6.85;;;23.60;99.90;;;;;;5012800;28;20207;-92
2022/04/14 09:47:37;;;;;;;11.50;8.13;;;23.50;99.90;;;;;;5007880;28;20218;-92
2022/04/14 09:50:06;;;;;;;10.70;7.47;;;23.70;99.90;;;;;;5007495;28;20593;-89
2022/04/14 09:52:51;;;;;;;8.60;4.75;;;23.80;99.90;;;;;;5002928;28;20281;-89
2022/04/14 09:55:17;;;;;;;8.77;5.47;;;23.50;99.90;;;;;;5015780;28;20203;-90
2022/04/14 09:58:08;;;;;;;8.35;5.00;;;23.20;99.90;;;;;;4999922;28;20297;-92
2022/04/14 10:00:36;;;;;;;9.63;5.30;;;22.90;99.90;;;;;;5000973;28;20215;-89
2022/04/14 10:03:07;;;;;;;8.70;4.93;;;22.60;99.90;;;;;;5005095;28;20741;-89
2022/04/14 10:05:38;;;;;;;8.43;5.25;;;22.40;99.90;;;;;;5007045;28;20527;-90
2022/04/14 10:08:08;;;;;;;8.50;5.20;;;22.20;99.90;;;;;;5003057;28;20257;-89
2022/04/14 10:10:37;;;;;;;8.77;5.53;;;21.90;99.90;;;;;;4999742;28;20308;-88
2022/04/14 10:13:07;;;;;;;11.82;7.45;;;21.80;99.90;;;;;;5009138;28;20280;-87
2022/04/14 10:15:37;;;;;;;11.13;6.50;;;21.70;99.90;;;;;;5015801;28;20944;-89
2022/04/14 10:18:07;;;;;;;9.65;5.65;;;21.70;99.90;;;;;;5016584;28;20218;-87
2022/04/14 10:20:36;;;;;;;11.50;5.85;;;21.70;99.90;;;;;;5006275;28;20225;-88
2022/04/14 10:23:03;;;;;;;7.65;4.93;;;22.00;99.90;;;;;;5011970;28;20772;-88
2022/04/14 10:25:32;;;;;;;8.38;5.60;;;21.50;99.90;;;;;;5009128;28;20284;-85
2022/04/14 10:28:00;;;;;;;10.20;6.82;;;21.40;99.90;;;;;;5002254;28;20317;-89
2022/04/14 10:30:27;;;;;;;10.65;7.43;;;21.10;99.90;;;;;;5003298;28;20210;-87
2022/04/14 10:32:55;;;;;;;13.07;7.70;;;20.90;99.90;;;;;;4999940;28;20207;-90
2022/04/14 10:35:27;;;;;;;11.32;7.20;;;20.70;99.90;;;;;;5027880;28;20210;-89
2022/04/14 10:38:26;;;;;;;12.25;7.05;;;20.60;99.90;;;;;;5013660;28;20253;-91
2022/04/14 10:41:15;;;;;;;11.55;7.38;;;20.60;99.90;;;;;;5003172;28;20689;-92
2022/04/14 10:43:46;;;;;;;6.78;5.35;;;20.60;99.90;;;;;;4996066;28;20666;-90
2022/04/14 10:46:18;;;;;;;8.52;5.63;;;20.80;99.90;;;;;;5011213;28;20214;-91
2022/04/14 10:48:46;;;;;;;10.98;5.82;;;20.90;99.90;;;;;;5002643;28;20691;-91
2022/04/14 10:51:27;;;;;;;8.50;4.85;;;21.10;99.90;;;;;;5014577;28;20207;-88
2022/04/14 10:54:04;;;;;;;9.15;5.65;;;21.10;99.90;;;;;;5006487;28;20679;-88
2022/04/14 10:56:33;;;;;;;9.25;5.80;;;21.10;99.90;;;;;;5006446;28;20215;-89
2022/04/14 10:59:16;;;;;;;11.73;6.38;;;21.20;99.90;;;;;;5007541;28;20274;-91
2022/04/14 11:01:46;;;;;;;10.15;6.70;;;21.40;99.90;;;;;;5011064;28;20660;-90
2022/04/14 11:04:42;;;;;;;9.55;6.28;;;21.50;99.90;;;;;;5011232;28;20209;-89
2022/04/14 11:07:15;;;;;;;9.25;6.13;;;21.40;99.90;;;;;;5006256;28;20300;-89
2022/04/14 11:09:42;;;;;;;9.32;5.93;;;21.40;99.90;;;;;;5020901;28;20217;-89
2022/04/14 11:12:11;;;;;;;7.50;5.35;;;21.40;99.90;;;;;;5013013;28;20207;-93
2022/04/14 11:14:53;;;;;;;8.38;5.28;;;21.50;99.90;;;;;;5005761;28;20210;-92
2022/04/14 11:17:37;;;;;;;6.25;4.07;;;21.70;99.90;;;;;;5012084;28;20226;-92
2022/04/14 11:20:27;;;;;;;7.35;4.95;;;21.70;99.90;;;;;;5002500;28;20203;-79
2022/04/14 11:23:15;;;;;;;10.52;5.35;;;21.60;99.90;;;;;;5002186;28;20720;-90
2022/04/14 11:25:44;;;;;;;7.97;5.82;;;21.50;99.90;;;;;;5001435;28;20211;-90
2022/04/14 11:28:25;;;;;;;7.60;5.57;;;21.30;99.90;;;;;;5003003;28;20316;-88
2022/04/14 11:31:00;;;;;;;7.80;5.18;;;21.00;99.90;;;;;;4996605;28;20642;-87
2022/04/14 11:33:30;;;;;;;6.90;4.40;;;20.70;99.90;;;;;;5000370;28;20223;-87
2022/04/14 11:36:14;;;;;;;7.28;4.38;;;20.70;99.90;;;;;;5002449;28;20286;-89
2022/04/14 11:39:06;;;;;;;7.78;3.95;;;20.60;99.90;;;;;;4995972;28;20211;-87
2022/04/14 11:41:44;;;;;;;6.60;4.05;;;20.60;99.90;;;;;;5020707;28;20288;-90
2022/04/14 11:44:31;;;;;;;5.53;3.72;;;20.50;99.90;;;;;;5006207;28;20271;-88
2022/04/14 11:46:59;;;;;;;8.25;4.55;;;20.40;99.90;;;;;;5004518;28;20215;-88
2022/04/14 11:49:27;;;;;;;5.80;4.43;;;20.20;99.90;;;;;;5002532;28;20331;-89
2022/04/14 11:52:06;;;;;;;6.45;4.53;;;20.10;99.90;;;;;;5002867;28;20211;-89
2022/04/14 11:54:37;;;;;;;7.78;4.82;;;20.00;99.90;;;;;;5002414;28;20206;-88
2022/04/14 11:57:11;;;;;;;5.72;4.40;;;20.10;99.90;;;;;;5003969;28;20242;-87
2022/04/14 11:59:44;;;;;;;6.28;4.63;;;20.30;99.90;;;;;;5002562;28;20230;-87
2022/04/14 12:02:18;;;;;;;5.22;4.32;;;20.20;99.90;;;;;;5017989;28;20214;-87
2022/04/14 12:04:52;;;;;;;6.05;4.57;;;20.20;99.90;;;;;;5014165;28;20475;-87
2022/04/14 12:07:21;;;;;;;7.18;5.40;;;20.10;99.90;;;;;;5006448;28;20237;-88
2022/04/14 12:10:06;;;;;;;6.90;4.53;;;20.20;99.90;;;;;;5007447;28;20215;-87
2022/04/14 12:12:37;;;;;;;6.78;4.32;;;20.10;99.90;;;;;;5016514;28;20199;-89
2022/04/14 12:15:05;;;;;;;4.82;3.40;;;20.10;99.90;;;;;;5012303;28;20669;-87
2022/04/14 12:17:35;;;;;;;5.05;3.70;;;20.20;99.90;;;;;;5017847;28;20230;-87
2022/04/14 12:20:13;;;;;;;5.40;4.10;;;20.30;99.90;;;;;;5005405;28;20253;-87
2022/04/14 12:22:43;;;;;;;6.85;4.63;;;20.40;99.90;;;;;;5004726;28;20214;-86
2022/04/14 12:25:11;;;;;;;4.63;3.65;;;20.60;99.90;;;;;;5005137;28;20816;-88
2022/04/14 12:27:38;;;;;;;6.03;4.40;;;20.80;99.90;;;;;;4996522;28;20203;-88
2022/04/14 12:30:09;;;;;;;7.72;5.03;;;20.80;99.90;;;;;;5000086;28;20393;-87
2022/04/14 12:32:37;;;;;;;5.55;3.97;;;20.80;99.90;;;;;;5002478;28;20267;-88
2022/04/14 12:35:08;;;;;;;5.28;4.10;;;20.80;99.90;;;;;;5014477;28;20218;-90
2022/04/14 12:37:40;;;;;;;4.97;4.15;;;20.50;99.90;;;;;;5001022;28;20280;-88
2022/04/14 12:40:17;;;;;;;5.03;3.90;;;20.30;99.90;;;;;;5000031;28;20222;-87